sensor_id;sensor_type;location;lat;lon;timestamp;P1;durP1;ratioP1;P2;durP2;ratioP2
57663;SDS011;43493;53.098;6.064;2023-10-19T00:00:47;30.20;;;20.40;;
57663;SDS011;43493;53.098;6.064;2023-10-19T00:03:17;26.80;;;19.80;;
57663;SDS011;43493;53.098;6.064;2023-10-19T00:05:44;28.37;;;19.77;;
57663;SDS011;43493;53.098;6.064;2023-10-19T00:08:12;26.13;;;19.83;;
57663;SDS011;43493;53.098;6.064;2023-10-19T00:10:38;26.93;;;20.00;;
57663;SDS011;43493;53.098;6.064;2023-10-19T00:13:08;32.73;;;22.17;;
57663;SDS011;43493;53.098;6.064;2023-10-19T00:15:40;34.90;;;22.53;;
57663;SDS011;43493;53.098;6.064;2023-10-19T00:18:18;31.63;;;22.10;;
57663;SDS011;43493;53.098;6.064;2023-10-19T00:20:45;36.87;;;22.23;;
57663;SDS011;43493;53.098;6.064;2023-10-19T00:23:21;30.03;;;20.57;;
57663;SDS011;43493;53.098;6.064;2023-10-19T00:25:58;35.17;;;23.90;;
57663;SDS011;43493;53.098;6.064;2023-10-19T00:28:25;45.30;;;26.70;;
57663;SDS011;43493;53.098;6.064;2023-10-19T00:30:53;35.07;;;22.70;;
57663;SDS011;43493;53.098;6.064;2023-10-19T00:33:24;34.20;;;23.97;;
57663;SDS011;43493;53.098;6.064;2023-10-19T00:35:53;36.07;;;24.17;;
57663;SDS011;43493;53.098;6.064;2023-10-19T00:38:32;32.67;;;23.60;;
57663;SDS011;43493;53.098;6.064;2023-10-19T00:41:02;37.57;;;24.97;;
57663;SDS011;43493;53.098;6.064;2023-10-19T00:43:31;40.13;;;25.60;;
57663;SDS011;43493;53.098;6.064;2023-10-19T00:46:08;40.80;;;25.00;;
57663;SDS011;43493;53.098;6.064;2023-10-19T00:48:56;33.33;;;24.47;;
57663;SDS011;43493;53.098;6.064;2023-10-19T00:51:26;31.93;;;24.17;;
57663;SDS011;43493;53.098;6.064;2023-10-19T00:54:01;36.93;;;25.43;;
57663;SDS011;43493;53.098;6.064;2023-10-19T00:56:34;42.23;;;26.83;;
57663;SDS011;43493;53.098;6.064;2023-10-19T00:59:01;55.40;;;29.37;;
57663;SDS011;43493;53.098;6.064;2023-10-19T01:01:38;36.37;;;24.80;;
57663;SDS011;43493;53.098;6.064;2023-10-19T01:04:09;37.37;;;25.70;;
57663;SDS011;43493;53.098;6.064;2023-10-19T01:06:40;37.63;;;26.50;;
57663;SDS011;43493;53.098;6.064;2023-10-19T01:09:12;35.43;;;25.10;;
57663;SDS011;43493;53.098;6.064;2023-10-19T01:11:43;40.43;;;25.80;;
57663;SDS011;43493;53.098;6.064;2023-10-19T01:14:21;35.57;;;25.50;;
57663;SDS011;43493;53.098;6.064;2023-10-19T01:16:47;49.30;;;29.73;;
57663;SDS011;43493;53.098;6.064;2023-10-19T01:19:15;42.77;;;28.20;;
57663;SDS011;43493;53.098;6.064;2023-10-19T01:21:45;37.13;;;25.23;;
57663;SDS011;43493;53.098;6.064;2023-10-19T01:24:18;42.10;;;27.73;;
57663;SDS011;43493;53.098;6.064;2023-10-19T01:26:49;39.50;;;28.17;;
57663;SDS011;43493;53.098;6.064;2023-10-19T01:29:16;45.10;;;28.33;;
57663;SDS011;43493;53.098;6.064;2023-10-19T01:31:43;60.53;;;32.73;;
57663;SDS011;43493;53.098;6.064;2023-10-19T01:34:33;42.80;;;28.70;;
57663;SDS011;43493;53.098;6.064;2023-10-19T01:37:00;46.33;;;29.70;;
57663;SDS011;43493;53.098;6.064;2023-10-19T01:39:32;52.33;;;30.80;;
57663;SDS011;43493;53.098;6.064;2023-10-19T01:42:02;42.10;;;28.53;;
57663;SDS011;43493;53.098;6.064;2023-10-19T01:44:33;48.70;;;29.07;;
57663;SDS011;43493;53.098;6.064;2023-10-19T01:47:01;50.27;;;29.20;;
57663;SDS011;43493;53.098;6.064;2023-10-19T01:49:28;45.37;;;28.50;;
57663;SDS011;43493;53.098;6.064;2023-10-19T01:51:55;53.97;;;31.73;;
57663;SDS011;43493;53.098;6.064;2023-10-19T01:54:21;44.33;;;28.37;;
57663;SDS011;43493;53.098;6.064;2023-10-19T01:56:53;46.43;;;29.30;;
57663;SDS011;43493;53.098;6.064;2023-10-19T01:59:26;48.37;;;29.57;;
57663;SDS011;43493;53.098;6.064;2023-10-19T02:01:55;35.97;;;25.27;;
57663;SDS011;43493;53.098;6.064;2023-10-19T02:04:22;45.23;;;28.50;;
57663;SDS011;43493;53.098;6.064;2023-10-19T02:06:49;44.00;;;27.53;;
57663;SDS011;43493;53.098;6.064;2023-10-19T02:09:17;43.87;;;28.03;;
57663;SDS011;43493;53.098;6.064;2023-10-19T02:11:51;47.00;;;28.90;;
57663;SDS011;43493;53.098;6.064;2023-10-19T02:14:18;49.70;;;28.97;;
57663;SDS011;43493;53.098;6.064;2023-10-19T02:16:45;45.43;;;27.37;;
57663;SDS011;43493;53.098;6.064;2023-10-19T02:19:21;46.07;;;27.70;;
57663;SDS011;43493;53.098;6.064;2023-10-19T02:21:50;59.83;;;31.47;;
57663;SDS011;43493;53.098;6.064;2023-10-19T02:24:17;46.67;;;26.70;;
57663;SDS011;43493;53.098;6.064;2023-10-19T02:26:44;45.77;;;27.00;;
57663;SDS011;43493;53.098;6.064;2023-10-19T02:29:14;45.20;;;25.03;;
57663;SDS011;43493;53.098;6.064;2023-10-19T02:31:40;33.97;;;22.10;;
57663;SDS011;43493;53.098;6.064;2023-10-19T02:34:06;43.83;;;26.67;;
57663;SDS011;43493;53.098;6.064;2023-10-19T02:36:34;45.77;;;25.13;;
57663;SDS011;43493;53.098;6.064;2023-10-19T02:39:03;30.70;;;21.23;;
57663;SDS011;43493;53.098;6.064;2023-10-19T02:41:36;39.47;;;24.47;;
57663;SDS011;43493;53.098;6.064;2023-10-19T02:44:04;52.30;;;27.03;;
57663;SDS011;43493;53.098;6.064;2023-10-19T02:46:34;36.90;;;21.33;;
57663;SDS011;43493;53.098;6.064;2023-10-19T02:49:07;29.47;;;19.43;;
57663;SDS011;43493;53.098;6.064;2023-10-19T02:51:40;30.60;;;19.63;;
57663;SDS011;43493;53.098;6.064;2023-10-19T02:54:10;27.27;;;18.73;;
57663;SDS011;43493;53.098;6.064;2023-10-19T02:56:44;40.63;;;21.30;;
57663;SDS011;43493;53.098;6.064;2023-10-19T02:59:15;27.37;;;18.07;;
57663;SDS011;43493;53.098;6.064;2023-10-19T03:01:42;32.40;;;19.20;;
57663;SDS011;43493;53.098;6.064;2023-10-19T03:04:10;31.47;;;18.80;;
57663;SDS011;43493;53.098;6.064;2023-10-19T03:06:40;30.23;;;18.57;;
57663;SDS011;43493;53.098;6.064;2023-10-19T03:09:06;28.57;;;17.87;;
57663;SDS011;43493;53.098;6.064;2023-10-19T03:11:41;31.15;;;18.80;;
57663;SDS011;43493;53.098;6.064;2023-10-19T03:14:08;34.73;;;19.03;;
57663;SDS011;43493;53.098;6.064;2023-10-19T03:16:35;33.37;;;18.73;;
57663;SDS011;43493;53.098;6.064;2023-10-19T03:19:02;49.27;;;21.80;;
57663;SDS011;43493;53.098;6.064;2023-10-19T03:21:29;35.60;;;20.13;;
57663;SDS011;43493;53.098;6.064;2023-10-19T03:23:59;39.83;;;20.87;;
57663;SDS011;43493;53.098;6.064;2023-10-19T03:26:37;29.10;;;18.10;;
57663;SDS011;43493;53.098;6.064;2023-10-19T03:29:05;25.27;;;16.60;;
57663;SDS011;43493;53.098;6.064;2023-10-19T03:31:39;28.98;;;17.67;;
57663;SDS011;43493;53.098;6.064;2023-10-19T03:34:14;27.17;;;16.67;;
57663;SDS011;43493;53.098;6.064;2023-10-19T03:36:43;29.60;;;16.70;;
57663;SDS011;43493;53.098;6.064;2023-10-19T03:39:09;32.30;;;17.47;;
57663;SDS011;43493;53.098;6.064;2023-10-19T03:41:39;23.20;;;15.03;;
57663;SDS011;43493;53.098;6.064;2023-10-19T03:44:09;27.73;;;16.40;;
57663;SDS011;43493;53.098;6.064;2023-10-19T03:46:45;28.57;;;17.33;;
57663;SDS011;43493;53.098;6.064;2023-10-19T03:49:22;31.60;;;18.00;;
57663;SDS011;43493;53.098;6.064;2023-10-19T03:51:55;38.40;;;19.40;;
57663;SDS011;43493;53.098;6.064;2023-10-19T03:54:26;34.13;;;18.87;;
57663;SDS011;43493;53.098;6.064;2023-10-19T03:56:53;28.60;;;16.83;;
57663;SDS011;43493;53.098;6.064;2023-10-19T03:59:21;25.03;;;15.50;;
57663;SDS011;43493;53.098;6.064;2023-10-19T04:01:48;30.07;;;17.50;;
57663;SDS011;43493;53.098;6.064;2023-10-19T04:04:14;35.43;;;18.73;;
57663;SDS011;43493;53.098;6.064;2023-10-19T04:06:41;32.53;;;18.17;;
57663;SDS011;43493;53.098;6.064;2023-10-19T04:09:14;39.87;;;20.57;;
57663;SDS011;43493;53.098;6.064;2023-10-19T04:11:42;41.50;;;20.47;;
57663;SDS011;43493;53.098;6.064;2023-10-19T04:14:15;32.03;;;18.27;;
57663;SDS011;43493;53.098;6.064;2023-10-19T04:16:44;32.17;;;18.13;;
57663;SDS011;43493;53.098;6.064;2023-10-19T04:19:10;36.63;;;17.73;;
57663;SDS011;43493;53.098;6.064;2023-10-19T04:21:36;23.20;;;15.00;;
57663;SDS011;43493;53.098;6.064;2023-10-19T04:24:07;31.50;;;17.73;;
57663;SDS011;43493;53.098;6.064;2023-10-19T04:26:34;34.57;;;18.47;;
57663;SDS011;43493;53.098;6.064;2023-10-19T04:29:06;31.07;;;17.03;;
57663;SDS011;43493;53.098;6.064;2023-10-19T04:31:39;27.20;;;15.97;;
57663;SDS011;43493;53.098;6.064;2023-10-19T04:34:15;24.23;;;15.03;;
57663;SDS011;43493;53.098;6.064;2023-10-19T04:36:45;27.43;;;16.17;;
57663;SDS011;43493;53.098;6.064;2023-10-19T04:39:14;29.10;;;16.03;;
57663;SDS011;43493;53.098;6.064;2023-10-19T04:41:40;39.83;;;18.70;;
57663;SDS011;43493;53.098;6.064;2023-10-19T04:44:07;27.10;;;16.40;;
57663;SDS011;43493;53.098;6.064;2023-10-19T04:46:36;34.83;;;18.00;;
57663;SDS011;43493;53.098;6.064;2023-10-19T04:49:02;31.63;;;16.70;;
57663;SDS011;43493;53.098;6.064;2023-10-19T04:51:31;39.93;;;18.43;;
57663;SDS011;43493;53.098;6.064;2023-10-19T04:53:57;34.63;;;18.57;;
57663;SDS011;43493;53.098;6.064;2023-10-19T04:56:22;47.33;;;21.30;;
57663;SDS011;43493;53.098;6.064;2023-10-19T04:58:48;34.77;;;18.00;;
57663;SDS011;43493;53.098;6.064;2023-10-19T05:01:14;49.30;;;20.53;;
57663;SDS011;43493;53.098;6.064;2023-10-19T05:03:40;29.27;;;16.73;;
57663;SDS011;43493;53.098;6.064;2023-10-19T05:06:07;22.73;;;14.33;;
57663;SDS011;43493;53.098;6.064;2023-10-19T05:08:34;38.93;;;18.37;;
57663;SDS011;43493;53.098;6.064;2023-10-19T05:11:01;28.87;;;15.03;;
57663;SDS011;43493;53.098;6.064;2023-10-19T05:13:29;25.00;;;14.70;;
57663;SDS011;43493;53.098;6.064;2023-10-19T05:15:56;26.63;;;15.07;;
57663;SDS011;43493;53.098;6.064;2023-10-19T05:18:24;21.77;;;13.27;;
57663;SDS011;43493;53.098;6.064;2023-10-19T05:20:51;24.00;;;13.90;;
57663;SDS011;43493;53.098;6.064;2023-10-19T05:23:21;19.50;;;12.93;;
57663;SDS011;43493;53.098;6.064;2023-10-19T05:25:53;35.93;;;17.23;;
57663;SDS011;43493;53.098;6.064;2023-10-19T05:28:28;24.37;;;15.03;;
57663;SDS011;43493;53.098;6.064;2023-10-19T05:30:54;23.40;;;14.10;;
57663;SDS011;43493;53.098;6.064;2023-10-19T05:33:20;21.93;;;13.80;;
57663;SDS011;43493;53.098;6.064;2023-10-19T05:35:47;17.97;;;12.40;;
57663;SDS011;43493;53.098;6.064;2023-10-19T05:38:13;23.17;;;14.57;;
57663;SDS011;43493;53.098;6.064;2023-10-19T05:40:38;31.97;;;15.37;;
57663;SDS011;43493;53.098;6.064;2023-10-19T05:43:08;21.97;;;13.53;;
57663;SDS011;43493;53.098;6.064;2023-10-19T05:45:34;24.83;;;15.10;;
57663;SDS011;43493;53.098;6.064;2023-10-19T05:48:01;22.10;;;14.10;;
57663;SDS011;43493;53.098;6.064;2023-10-19T05:50:29;23.53;;;15.00;;
57663;SDS011;43493;53.098;6.064;2023-10-19T05:52:55;30.60;;;16.57;;
57663;SDS011;43493;53.098;6.064;2023-10-19T05:55:20;26.37;;;15.27;;
57663;SDS011;43493;53.098;6.064;2023-10-19T05:57:47;29.17;;;16.57;;
57663;SDS011;43493;53.098;6.064;2023-10-19T06:00:12;28.83;;;16.30;;
57663;SDS011;43493;53.098;6.064;2023-10-19T06:02:39;28.57;;;15.87;;
57663;SDS011;43493;53.098;6.064;2023-10-19T06:05:09;29.83;;;16.47;;
57663;SDS011;43493;53.098;6.064;2023-10-19T06:07:35;30.50;;;17.33;;
57663;SDS011;43493;53.098;6.064;2023-10-19T06:10:01;28.50;;;16.57;;
57663;SDS011;43493;53.098;6.064;2023-10-19T06:12:30;31.47;;;17.70;;
57663;SDS011;43493;53.098;6.064;2023-10-19T06:14:56;24.53;;;15.63;;
57663;SDS011;43493;53.098;6.064;2023-10-19T06:17:22;25.23;;;15.63;;
57663;SDS011;43493;53.098;6.064;2023-10-19T06:19:48;26.43;;;16.47;;
57663;SDS011;43493;53.098;6.064;2023-10-19T06:22:14;32.70;;;17.53;;
57663;SDS011;43493;53.098;6.064;2023-10-19T06:24:41;28.63;;;16.47;;
57663;SDS011;43493;53.098;6.064;2023-10-19T06:27:09;26.53;;;15.93;;
57663;SDS011;43493;53.098;6.064;2023-10-19T06:29:35;24.93;;;15.13;;
57663;SDS011;43493;53.098;6.064;2023-10-19T06:32:01;25.67;;;16.30;;
57663;SDS011;43493;53.098;6.064;2023-10-19T06:34:27;25.93;;;16.07;;
57663;SDS011;43493;53.098;6.064;2023-10-19T06:36:53;23.30;;;15.43;;
57663;SDS011;43493;53.098;6.064;2023-10-19T06:39:19;25.67;;;15.87;;
57663;SDS011;43493;53.098;6.064;2023-10-19T06:41:46;21.33;;;14.40;;
57663;SDS011;43493;53.098;6.064;2023-10-19T06:44:13;36.73;;;18.30;;
57663;SDS011;43493;53.098;6.064;2023-10-19T06:46:39;25.37;;;16.17;;
57663;SDS011;43493;53.098;6.064;2023-10-19T06:49:05;18.63;;;13.77;;
57663;SDS011;43493;53.098;6.064;2023-10-19T06:51:31;23.67;;;14.53;;
57663;SDS011;43493;53.098;6.064;2023-10-19T06:53:58;25.40;;;14.80;;
57663;SDS011;43493;53.098;6.064;2023-10-19T06:56:24;19.70;;;14.53;;
57663;SDS011;43493;53.098;6.064;2023-10-19T06:58:50;27.33;;;15.70;;
57663;SDS011;43493;53.098;6.064;2023-10-19T07:01:16;22.13;;;14.33;;
57663;SDS011;43493;53.098;6.064;2023-10-19T07:03:43;23.43;;;14.30;;
57663;SDS011;43493;53.098;6.064;2023-10-19T07:06:09;23.13;;;14.00;;
57663;SDS011;43493;53.098;6.064;2023-10-19T07:08:39;23.37;;;14.57;;
57663;SDS011;43493;53.098;6.064;2023-10-19T07:11:06;28.93;;;16.70;;
57663;SDS011;43493;53.098;6.064;2023-10-19T07:13:32;23.53;;;14.63;;
57663;SDS011;43493;53.098;6.064;2023-10-19T07:15:58;22.57;;;15.03;;
57663;SDS011;43493;53.098;6.064;2023-10-19T07:18:24;19.47;;;13.53;;
57663;SDS011;43493;53.098;6.064;2023-10-19T07:20:51;17.50;;;12.70;;
57663;SDS011;43493;53.098;6.064;2023-10-19T07:25:54;21.53;;;13.83;;
57663;SDS011;43493;53.098;6.064;2023-10-19T07:28:21;23.33;;;15.23;;
57663;SDS011;43493;53.098;6.064;2023-10-19T07:30:49;24.83;;;14.83;;
57663;SDS011;43493;53.098;6.064;2023-10-19T07:33:16;19.90;;;14.20;;
57663;SDS011;43493;53.098;6.064;2023-10-19T07:35:43;23.57;;;15.00;;
57663;SDS011;43493;53.098;6.064;2023-10-19T07:38:12;21.37;;;14.80;;
57663;SDS011;43493;53.098;6.064;2023-10-19T07:40:38;22.27;;;15.17;;
57663;SDS011;43493;53.098;6.064;2023-10-19T07:43:04;23.23;;;15.00;;
57663;SDS011;43493;53.098;6.064;2023-10-19T07:45:30;21.47;;;14.53;;
57663;SDS011;43493;53.098;6.064;2023-10-19T07:47:57;34.17;;;17.97;;
57663;SDS011;43493;53.098;6.064;2023-10-19T07:50:31;34.60;;;17.83;;
57663;SDS011;43493;53.098;6.064;2023-10-19T07:52:58;36.10;;;19.07;;
57663;SDS011;43493;53.098;6.064;2023-10-19T07:55:23;32.03;;;18.13;;
57663;SDS011;43493;53.098;6.064;2023-10-19T07:57:50;27.43;;;17.53;;
57663;SDS011;43493;53.098;6.064;2023-10-19T08:00:16;29.17;;;16.73;;
57663;SDS011;43493;53.098;6.064;2023-10-19T08:02:42;41.63;;;19.17;;
57663;SDS011;43493;53.098;6.064;2023-10-19T08:05:12;32.10;;;16.77;;
57663;SDS011;43493;53.098;6.064;2023-10-19T08:07:44;26.07;;;15.87;;
57663;SDS011;43493;53.098;6.064;2023-10-19T08:10:12;24.43;;;16.07;;
57663;SDS011;43493;53.098;6.064;2023-10-19T08:12:40;27.53;;;16.90;;
57663;SDS011;43493;53.098;6.064;2023-10-19T08:15:07;27.67;;;17.00;;
57663;SDS011;43493;53.098;6.064;2023-10-19T08:17:39;31.33;;;18.20;;
57663;SDS011;43493;53.098;6.064;2023-10-19T08:20:07;25.80;;;15.93;;
57663;SDS011;43493;53.098;6.064;2023-10-19T08:22:37;24.37;;;16.57;;
57663;SDS011;43493;53.098;6.064;2023-10-19T08:25:03;30.73;;;16.33;;
57663;SDS011;43493;53.098;6.064;2023-10-19T08:27:37;28.70;;;17.13;;
57663;SDS011;43493;53.098;6.064;2023-10-19T08:30:05;31.17;;;17.70;;
57663;SDS011;43493;53.098;6.064;2023-10-19T08:32:34;25.47;;;16.03;;
57663;SDS011;43493;53.098;6.064;2023-10-19T08:35:01;24.37;;;15.10;;
57663;SDS011;43493;53.098;6.064;2023-10-19T08:37:27;27.93;;;16.37;;
57663;SDS011;43493;53.098;6.064;2023-10-19T08:39:53;27.93;;;17.07;;
57663;SDS011;43493;53.098;6.064;2023-10-19T08:42:19;25.20;;;15.80;;
57663;SDS011;43493;53.098;6.064;2023-10-19T08:44:45;28.60;;;17.03;;
57663;SDS011;43493;53.098;6.064;2023-10-19T08:47:11;23.90;;;15.43;;
57663;SDS011;43493;53.098;6.064;2023-10-19T08:49:37;25.80;;;15.57;;
57663;SDS011;43493;53.098;6.064;2023-10-19T08:52:03;31.57;;;16.63;;
57663;SDS011;43493;53.098;6.064;2023-10-19T08:54:31;32.20;;;17.27;;
57663;SDS011;43493;53.098;6.064;2023-10-19T08:56:59;30.03;;;16.70;;
57663;SDS011;43493;53.098;6.064;2023-10-19T08:59:25;25.90;;;15.43;;
57663;SDS011;43493;53.098;6.064;2023-10-19T09:01:59;31.67;;;16.93;;
57663;SDS011;43493;53.098;6.064;2023-10-19T09:04:27;33.10;;;16.77;;
57663;SDS011;43493;53.098;6.064;2023-10-19T09:06:53;30.63;;;16.23;;
57663;SDS011;43493;53.098;6.064;2023-10-19T09:09:20;42.83;;;19.70;;
57663;SDS011;43493;53.098;6.064;2023-10-19T09:11:46;33.33;;;18.50;;
57663;SDS011;43493;53.098;6.064;2023-10-19T09:14:13;40.10;;;19.20;;
57663;SDS011;43493;53.098;6.064;2023-10-19T09:16:55;32.33;;;18.70;;
57663;SDS011;43493;53.098;6.064;2023-10-19T09:19:38;34.97;;;17.40;;
57663;SDS011;43493;53.098;6.064;2023-10-19T09:22:06;29.67;;;17.73;;
57663;SDS011;43493;53.098;6.064;2023-10-19T09:24:34;25.93;;;16.73;;
57663;SDS011;43493;53.098;6.064;2023-10-19T09:27:02;30.73;;;17.87;;
57663;SDS011;43493;53.098;6.064;2023-10-19T09:29:30;30.00;;;18.33;;
57663;SDS011;43493;53.098;6.064;2023-10-19T09:31:59;31.03;;;16.90;;
57663;SDS011;43493;53.098;6.064;2023-10-19T09:34:29;27.90;;;16.90;;
57663;SDS011;43493;53.098;6.064;2023-10-19T09:36:58;37.43;;;18.67;;
57663;SDS011;43493;53.098;6.064;2023-10-19T09:39:26;32.00;;;18.27;;
57663;SDS011;43493;53.098;6.064;2023-10-19T09:42:08;29.97;;;17.67;;
57663;SDS011;43493;53.098;6.064;2023-10-19T09:44:42;31.43;;;18.20;;
57663;SDS011;43493;53.098;6.064;2023-10-19T09:47:13;30.07;;;17.47;;
57663;SDS011;43493;53.098;6.064;2023-10-19T09:49:47;28.47;;;17.40;;
57663;SDS011;43493;53.098;6.064;2023-10-19T09:52:15;33.97;;;19.50;;
57663;SDS011;43493;53.098;6.064;2023-10-19T09:57:52;33.17;;;18.77;;
57663;SDS011;43493;53.098;6.064;2023-10-19T10:00:21;34.50;;;18.97;;
57663;SDS011;43493;53.098;6.064;2023-10-19T10:02:50;38.73;;;20.70;;
57663;SDS011;43493;53.098;6.064;2023-10-19T10:10:42;30.80;;;19.02;;
57663;SDS011;43493;53.098;6.064;2023-10-19T10:15:52;38.33;;;18.73;;
57663;SDS011;43493;53.098;6.064;2023-10-19T10:18:31;30.30;;;17.77;;
57663;SDS011;43493;53.098;6.064;2023-10-19T10:21:06;34.73;;;18.53;;
57663;SDS011;43493;53.098;6.064;2023-10-19T10:26:08;29.63;;;18.73;;
57663;SDS011;43493;53.098;6.064;2023-10-19T10:28:38;38.63;;;20.07;;
57663;SDS011;43493;53.098;6.064;2023-10-19T10:31:11;36.90;;;21.13;;
57663;SDS011;43493;53.098;6.064;2023-10-19T10:36:16;33.00;;;19.07;;
57663;SDS011;43493;53.098;6.064;2023-10-19T10:38:42;33.93;;;19.93;;
57663;SDS011;43493;53.098;6.064;2023-10-19T10:41:09;32.63;;;19.70;;
57663;SDS011;43493;53.098;6.064;2023-10-19T10:43:51;40.13;;;22.40;;
57663;SDS011;43493;53.098;6.064;2023-10-19T10:46:18;45.20;;;21.97;;
57663;SDS011;43493;53.098;6.064;2023-10-19T10:48:46;32.77;;;20.47;;
57663;SDS011;43493;53.098;6.064;2023-10-19T10:51:20;33.53;;;20.13;;
57663;SDS011;43493;53.098;6.064;2023-10-19T10:53:51;34.57;;;20.37;;
57663;SDS011;43493;53.098;6.064;2023-10-19T10:56:22;30.87;;;20.33;;
57663;SDS011;43493;53.098;6.064;2023-10-19T10:58:49;29.43;;;18.20;;
57663;SDS011;43493;53.098;6.064;2023-10-19T11:01:15;33.13;;;20.77;;
57663;SDS011;43493;53.098;6.064;2023-10-19T11:04:08;38.23;;;21.43;;
57663;SDS011;43493;53.098;6.064;2023-10-19T11:06:51;33.70;;;19.53;;
57663;SDS011;43493;53.098;6.064;2023-10-19T11:09:20;35.20;;;21.10;;
57663;SDS011;43493;53.098;6.064;2023-10-19T11:11:53;34.80;;;20.23;;
57663;SDS011;43493;53.098;6.064;2023-10-19T11:14:19;43.57;;;21.57;;
57663;SDS011;43493;53.098;6.064;2023-10-19T11:16:47;34.73;;;20.47;;
57663;SDS011;43493;53.098;6.064;2023-10-19T11:19:12;31.80;;;19.97;;
57663;SDS011;43493;53.098;6.064;2023-10-19T11:21:38;35.17;;;20.07;;
57663;SDS011;43493;53.098;6.064;2023-10-19T11:24:26;32.17;;;20.47;;
57663;SDS011;43493;53.098;6.064;2023-10-19T11:26:55;29.60;;;19.97;;
57663;SDS011;43493;53.098;6.064;2023-10-19T11:29:21;40.07;;;22.13;;
57663;SDS011;43493;53.098;6.064;2023-10-19T11:31:56;38.20;;;20.90;;
57663;SDS011;43493;53.098;6.064;2023-10-19T11:34:23;38.57;;;22.53;;
57663;SDS011;43493;53.098;6.064;2023-10-19T11:36:53;31.30;;;20.67;;
57663;SDS011;43493;53.098;6.064;2023-10-19T11:39:22;30.70;;;19.37;;
57663;SDS011;43493;53.098;6.064;2023-10-19T11:41:51;36.67;;;21.10;;
57663;SDS011;43493;53.098;6.064;2023-10-19T11:44:19;41.10;;;22.30;;
57663;SDS011;43493;53.098;6.064;2023-10-19T11:46:47;38.83;;;24.33;;
57663;SDS011;43493;53.098;6.064;2023-10-19T11:49:13;34.97;;;21.77;;
57663;SDS011;43493;53.098;6.064;2023-10-19T11:51:39;40.77;;;22.97;;
57663;SDS011;43493;53.098;6.064;2023-10-19T11:54:04;31.83;;;21.23;;
57663;SDS011;43493;53.098;6.064;2023-10-19T11:56:33;33.43;;;20.83;;
57663;SDS011;43493;53.098;6.064;2023-10-19T11:58:59;39.83;;;22.43;;
57663;SDS011;43493;53.098;6.064;2023-10-19T12:01:27;32.70;;;21.43;;
57663;SDS011;43493;53.098;6.064;2023-10-19T12:03:54;31.73;;;21.20;;
57663;SDS011;43493;53.098;6.064;2023-10-19T12:06:20;30.67;;;20.37;;
57663;SDS011;43493;53.098;6.064;2023-10-19T12:08:48;31.43;;;20.07;;
57663;SDS011;43493;53.098;6.064;2023-10-19T12:11:14;28.00;;;20.10;;
57663;SDS011;43493;53.098;6.064;2023-10-19T12:13:40;35.63;;;21.97;;
57663;SDS011;43493;53.098;6.064;2023-10-19T12:16:12;33.93;;;20.70;;
57663;SDS011;43493;53.098;6.064;2023-10-19T12:18:40;37.63;;;21.30;;
57663;SDS011;43493;53.098;6.064;2023-10-19T12:21:10;35.83;;;21.37;;
57663;SDS011;43493;53.098;6.064;2023-10-19T12:23:39;26.63;;;20.07;;
57663;SDS011;43493;53.098;6.064;2023-10-19T12:26:08;36.50;;;20.73;;
57663;SDS011;43493;53.098;6.064;2023-10-19T12:28:37;35.50;;;21.43;;
57663;SDS011;43493;53.098;6.064;2023-10-19T12:31:04;32.37;;;20.37;;
57663;SDS011;43493;53.098;6.064;2023-10-19T12:33:36;30.57;;;21.10;;
57663;SDS011;43493;53.098;6.064;2023-10-19T12:36:03;30.27;;;20.70;;
57663;SDS011;43493;53.098;6.064;2023-10-19T12:38:49;35.17;;;21.85;;
57663;SDS011;43493;53.098;6.064;2023-10-19T12:41:16;32.37;;;20.33;;
57663;SDS011;43493;53.098;6.064;2023-10-19T12:43:42;31.50;;;19.90;;
57663;SDS011;43493;53.098;6.064;2023-10-19T12:46:09;45.97;;;25.70;;
57663;SDS011;43493;53.098;6.064;2023-10-19T12:48:37;31.47;;;20.80;;
57663;SDS011;43493;53.098;6.064;2023-10-19T12:51:03;38.63;;;22.53;;
57663;SDS011;43493;53.098;6.064;2023-10-19T12:53:32;32.87;;;21.57;;
57663;SDS011;43493;53.098;6.064;2023-10-19T12:55:58;40.23;;;23.47;;
57663;SDS011;43493;53.098;6.064;2023-10-19T12:58:25;41.97;;;23.40;;
57663;SDS011;43493;53.098;6.064;2023-10-19T13:00:54;37.93;;;22.80;;
57663;SDS011;43493;53.098;6.064;2023-10-19T13:03:21;41.97;;;21.93;;
57663;SDS011;43493;53.098;6.064;2023-10-19T13:05:49;33.67;;;20.00;;
57663;SDS011;43493;53.098;6.064;2023-10-19T13:08:14;34.67;;;20.63;;
57663;SDS011;43493;53.098;6.064;2023-10-19T13:10:44;32.37;;;20.07;;
57663;SDS011;43493;53.098;6.064;2023-10-19T13:13:12;33.53;;;19.33;;
57663;SDS011;43493;53.098;6.064;2023-10-19T13:15:40;39.50;;;20.07;;
57663;SDS011;43493;53.098;6.064;2023-10-19T13:18:08;35.27;;;18.77;;
57663;SDS011;43493;53.098;6.064;2023-10-19T13:20:35;31.17;;;18.00;;
57663;SDS011;43493;53.098;6.064;2023-10-19T13:23:03;33.37;;;18.33;;
57663;SDS011;43493;53.098;6.064;2023-10-19T13:25:31;34.30;;;17.53;;
57663;SDS011;43493;53.098;6.064;2023-10-19T13:28:08;31.43;;;18.93;;
57663;SDS011;43493;53.098;6.064;2023-10-19T13:30:38;37.10;;;19.50;;
57663;SDS011;43493;53.098;6.064;2023-10-19T13:33:09;37.10;;;20.43;;
57663;SDS011;43493;53.098;6.064;2023-10-19T13:35:38;28.07;;;16.87;;
57663;SDS011;43493;53.098;6.064;2023-10-19T13:38:05;31.57;;;17.57;;
57663;SDS011;43493;53.098;6.064;2023-10-19T13:40:38;29.73;;;17.53;;
57663;SDS011;43493;53.098;6.064;2023-10-19T13:43:05;27.27;;;15.73;;
57663;SDS011;43493;53.098;6.064;2023-10-19T13:45:36;31.60;;;18.17;;
57663;SDS011;43493;53.098;6.064;2023-10-19T13:48:03;37.30;;;17.77;;
57663;SDS011;43493;53.098;6.064;2023-10-19T13:50:30;31.53;;;17.57;;
57663;SDS011;43493;53.098;6.064;2023-10-19T13:52:57;30.77;;;17.60;;
57663;SDS011;43493;53.098;6.064;2023-10-19T13:55:25;23.73;;;14.53;;
57663;SDS011;43493;53.098;6.064;2023-10-19T13:57:53;29.40;;;17.43;;
57663;SDS011;43493;53.098;6.064;2023-10-19T14:00:21;25.93;;;16.13;;
57663;SDS011;43493;53.098;6.064;2023-10-19T14:02:58;42.78;;;21.58;;
57663;SDS011;43493;53.098;6.064;2023-10-19T14:05:26;33.07;;;17.83;;
57663;SDS011;43493;53.098;6.064;2023-10-19T14:07:52;33.07;;;18.83;;
57663;SDS011;43493;53.098;6.064;2023-10-19T14:10:19;32.07;;;18.50;;
57663;SDS011;43493;53.098;6.064;2023-10-19T14:12:45;29.07;;;18.13;;
57663;SDS011;43493;53.098;6.064;2023-10-19T14:15:13;26.67;;;16.37;;
57663;SDS011;43493;53.098;6.064;2023-10-19T14:17:46;31.73;;;17.73;;
57663;SDS011;43493;53.098;6.064;2023-10-19T14:20:13;23.13;;;14.50;;
57663;SDS011;43493;53.098;6.064;2023-10-19T14:22:48;24.93;;;16.53;;
57663;SDS011;43493;53.098;6.064;2023-10-19T14:25:14;22.08;;;13.63;;
57663;SDS011;43493;53.098;6.064;2023-10-19T14:27:41;20.97;;;14.10;;
57663;SDS011;43493;53.098;6.064;2023-10-19T14:30:11;16.90;;;11.60;;
57663;SDS011;43493;53.098;6.064;2023-10-19T14:32:41;19.83;;;13.07;;
57663;SDS011;43493;53.098;6.064;2023-10-19T14:35:08;20.43;;;13.87;;
57663;SDS011;43493;53.098;6.064;2023-10-19T14:37:37;20.23;;;12.73;;
57663;SDS011;43493;53.098;6.064;2023-10-19T14:40:13;23.60;;;13.40;;
57663;SDS011;43493;53.098;6.064;2023-10-19T14:42:47;20.67;;;13.83;;
57663;SDS011;43493;53.098;6.064;2023-10-19T14:45:14;22.03;;;14.27;;
57663;SDS011;43493;53.098;6.064;2023-10-19T14:47:41;18.77;;;12.20;;
57663;SDS011;43493;53.098;6.064;2023-10-19T14:50:13;17.57;;;12.20;;